Time;durP1;ratioP1;P1;durP2;ratioP2;P2;SDS_P1;SDS_P2;PMS_P1;PMS_P2;Temp;Humidity;BMP_temperature;BMP_pressure;BME280_temperature;BME280_humidity;BME280_pressure;Samples;Min_cycle;Max_cycle;Signal;HPM_P1;HPM_P2
2022/10/11 00:01:02;;;;;;;15.75;5.88;;;;;;;14.24;69.23;100513.25;3145635;28;20097;-64
2022/10/11 00:02:34;;;;;;;10.93;5.65;;;;;;;14.24;69.30;100515.03;3145756;28;20129;-64
2022/10/11 00:04:05;;;;;;;11.65;5.53;;;;;;;14.23;69.42;100508.09;3145848;28;20048;-65
2022/10/11 00:05:37;;;;;;;11.48;5.53;;;;;;;14.24;69.49;100507.19;3145791;28;20048;-65
2022/10/11 00:07:10;;;;;;;13.95;6.20;;;;;;;14.26;69.38;100502.72;3145945;28;20056;-64
2022/10/11 00:08:41;;;;;;;11.95;6.18;;;;;;;14.26;69.19;100503.56;3145548;28;20045;-64
2022/10/11 00:10:15;;;;;;;13.45;5.80;;;;;;;14.28;69.60;100509.56;3145877;28;20127;-64
2022/10/11 00:11:47;;;;;;;13.57;5.95;;;;;;;14.30;69.29;100504.25;3145696;28;20048;-64
2022/10/11 00:13:18;;;;;;;11.07;5.65;;;;;;;14.30;69.38;100505.09;3145614;28;20492;-64
2022/10/11 00:14:49;;;;;;;10.85;5.93;;;;;;;14.30;69.57;100504.25;3145821;28;20060;-64
2022/10/11 00:16:21;;;;;;;11.18;6.03;;;;;;;14.29;69.96;100500.78;3145672;28;20495;-63
2022/10/11 00:17:53;;;;;;;17.55;6.55;;;;;;;14.30;69.84;100499.00;3145235;28;20052;-65
2022/10/11 00:19:25;;;;;;;16.20;6.32;;;;;;;14.28;69.82;100504.31;3145777;28;20063;-64
2022/10/11 00:21:05;;;;;;;16.33;5.88;;;;;;;14.25;70.01;100501.00;3145734;28;20049;-64
2022/10/11 00:22:38;;;;;;;14.45;6.68;;;;;;;14.22;70.37;100498.53;3145470;28;20044;-65
2022/10/11 00:24:11;;;;;;;10.95;6.20;;;;;;;14.14;70.61;100498.06;3145684;28;20055;-64
2022/10/11 00:25:44;;;;;;;11.82;7.53;;;;;;;14.13;70.99;100502.44;3145134;28;20048;-64
2022/10/11 00:27:16;;;;;;;12.63;6.40;;;;;;;14.11;71.04;100505.16;3145515;28;20048;-64
2022/10/11 00:28:50;;;;;;;14.13;7.50;;;;;;;14.10;70.95;100505.22;3145515;28;20048;-64
2022/10/11 00:30:22;;;;;;;14.52;7.53;;;;;;;14.10;70.83;100507.84;3145672;28;20055;-64
2022/10/11 00:31:54;;;;;;;17.02;7.78;;;;;;;14.10;71.19;100506.06;3145607;28;20052;-65
2022/10/11 00:33:25;;;;;;;16.10;7.80;;;;;;;14.10;70.92;100505.22;3145180;28;20041;-64
2022/10/11 00:35:03;;;;;;;12.68;8.48;;;;;;;14.10;71.20;100505.22;3145714;28;20437;-64
2022/10/11 00:36:35;;;;;;;15.10;8.52;;;;;;;14.07;70.94;100489.66;3145217;28;20075;-64
2022/10/11 00:38:06;;;;;;;25.70;8.85;;;;;;;14.08;71.24;100491.38;3145567;28;20130;-65
2022/10/11 00:39:38;;;;;;;16.83;9.30;;;;;;;14.09;71.21;100482.56;3144965;28;20052;-65
2022/10/11 00:41:11;;;;;;;20.95;8.90;;;;;;;14.08;71.10;100486.97;3145317;28;20064;-64
2022/10/11 00:42:43;;;;;;;19.13;10.02;;;;;;;14.02;71.09;100479.41;3145578;28;20517;-64
2022/10/11 00:44:18;;;;;;;21.33;9.60;;;;;;;14.06;71.32;100488.81;3145537;28;20109;-65
2022/10/11 00:46:03;;;;;;;17.42;9.55;;;;;;;14.05;71.17;100489.75;3145089;28;20151;-65
2022/10/11 00:47:34;;;;;;;19.23;8.98;;;;;;;14.02;71.46;100483.78;3145279;28;20563;-65
2022/10/11 00:49:14;;;;;;;23.45;9.88;;;;;;;14.02;71.26;100491.63;3145338;28;20059;-65
2022/10/11 00:50:45;;;;;;;16.00;9.32;;;;;;;14.00;71.47;100483.03;3145291;28;20045;-65
2022/10/11 00:52:27;;;;;;;22.13;10.40;;;;;;;14.01;71.46;100484.72;3145331;28;20052;-65
2022/10/11 00:54:01;;;;;;;18.15;9.75;;;;;;;13.99;71.46;100474.34;3145210;28;20513;-65
2022/10/11 00:55:37;;;;;;;18.70;9.65;;;;;;;13.98;71.61;100483.09;3145110;28;20186;-64
2022/10/11 00:57:13;;;;;;;21.45;10.13;;;;;;;14.00;71.38;100481.25;3145416;28;20449;-65
2022/10/11 00:58:45;;;;;;;17.52;9.40;;;;;;;14.01;71.42;100472.47;3141344;28;20519;-65
2022/10/11 01:00:17;;;;;;;19.55;10.23;;;;;;;14.03;71.73;100475.03;3145301;28;20048;-65
2022/10/11 01:01:49;;;;;;;24.40;9.77;;;;;;;14.00;72.07;100470.78;3145119;28;20059;-65
2022/10/11 01:03:25;;;;;;;23.73;9.80;;;;;;;14.00;72.03;100464.69;3144624;28;20453;-65
2022/10/11 01:04:57;;;;;;;19.10;9.70;;;;;;;14.02;72.04;100474.19;3145289;28;20045;-65
2022/10/11 01:06:29;;;;;;;18.45;9.57;;;;;;;14.02;71.76;100470.69;3145380;28;20075;-65
2022/10/11 01:08:01;;;;;;;20.92;10.10;;;;;;;14.04;71.96;100474.94;3145041;28;20117;-64
2022/10/11 01:09:33;;;;;;;21.70;10.30;;;;;;;14.03;71.64;100473.25;3144698;28;20124;-65
2022/10/11 01:11:05;;;;;;;16.92;9.75;;;;;;;14.06;71.65;100474.88;3145213;28;20097;-65
2022/10/11 01:12:50;;;;;;;17.63;9.57;;;;;;;14.04;72.03;100482.78;3144946;28;20059;-65
2022/10/11 01:14:50;;;;;;;16.83;9.32;;;;;;;14.02;72.10;100476.78;3145276;28;20516;-65
2022/10/11 01:16:28;;;;;;;17.73;9.70;;;;;;;14.00;72.04;100476.00;3142519;28;20040;-65
2022/10/11 01:18:06;;;;;;;16.42;9.75;;;;;;;13.97;72.11;100470.94;3140507;28;20045;-63
2022/10/11 01:19:53;;;;;;;20.63;9.68;;;;;;;13.95;72.25;100464.91;3144859;28;20080;-64
2022/10/11 01:21:34;;;;;;;17.95;10.05;;;;;;;13.95;72.38;100469.31;3144709;28;20437;-64
2022/10/11 01:23:33;;;;;;;18.52;9.48;;;;;;;13.96;72.43;100471.88;3132793;28;20067;-64
2022/10/11 01:25:19;;;;;;;17.65;9.85;;;;;;;13.90;72.34;100456.41;3134145;28;20053;-64
2022/10/11 01:27:30;;;;;;;24.45;10.05;;;;;;;14.00;71.87;100473.41;3145079;28;20126;-64
2022/10/11 01:29:14;;;;;;;16.48;9.43;;;;;;;14.02;72.00;100466.31;3145124;28;20105;-64
2022/10/11 01:30:47;;;;;;;;;;;;;;;14.01;72.05;100472.47;3145650;28;20055;-64
2022/10/11 01:32:26;;;;;;;19.48;9.27;;;;;;;14.03;71.77;100469.78;3145245;28;19997;-64
2022/10/11 01:34:04;;;;;;;17.15;10.30;;;;;;;13.98;71.75;100456.06;3145062;28;20052;-64
2022/10/11 01:35:41;;;;;;;22.45;9.93;;;;;;;14.02;72.13;100468.06;3145048;28;20147;-64
2022/10/11 01:37:19;;;;;;;21.70;9.63;;;;;;;14.00;72.06;100468.16;3144824;28;20503;-64
2022/10/11 01:38:54;;;;;;;15.73;8.77;;;;;;;13.97;72.04;100460.44;3145068;28;20051;-64
2022/10/11 01:40:31;;;;;;;16.85;8.85;;;;;;;13.94;72.10;100447.50;3144908;28;20048;-64
2022/10/11 01:42:08;;;;;;;18.25;9.98;;;;;;;13.91;72.54;100452.06;3145101;28;20048;-64
2022/10/11 01:43:42;;;;;;;17.17;8.93;;;;;;;13.85;72.54;100443.56;3144929;28;20163;-64
2022/10/11 01:45:17;;;;;;;12.80;8.02;;;;;;;13.82;72.60;100437.63;3145207;28;20059;-64
2022/10/11 01:46:51;;;;;;;17.25;9.40;;;;;;;13.85;72.92;100446.19;3144907;28;20045;-64
2022/10/11 01:48:22;;;;;;;15.18;8.95;;;;;;;13.80;73.07;100442.94;3144786;28;20162;-64
2022/10/11 01:49:55;;;;;;;16.92;9.05;;;;;;;13.80;73.13;100448.16;3144834;28;20060;-64
2022/10/11 01:51:31;;;;;;;15.15;8.73;;;;;;;13.77;73.12;100443.09;3144685;28;20044;-65
2022/10/11 01:53:09;;;;;;;13.93;8.48;;;;;;;13.75;73.42;100449.31;3144994;28;20068;-65
2022/10/11 01:54:54;;;;;;;16.73;8.65;;;;;;;13.73;73.30;100441.53;3144821;28;20036;-65
2022/10/11 01:56:38;;;;;;;15.88;8.48;;;;;;;13.73;73.32;100443.31;3145062;28;20048;-64
2022/10/11 01:58:16;;;;;;;14.73;8.38;;;;;;;13.72;73.13;100444.22;3144900;28;20059;-64
2022/10/11 01:59:58;;;;;;;15.80;7.82;;;;;;;13.70;73.27;100444.31;3145057;28;20049;-65
2022/10/11 02:01:40;;;;;;;13.10;8.13;;;;;;;13.68;73.64;100442.69;3144867;28;20082;-65
2022/10/11 02:03:23;;;;;;;15.95;8.02;;;;;;;13.67;73.73;100447.06;3140198;28;20049;-65
2022/10/11 02:04:58;;;;;;;16.95;8.75;;;;;;;13.63;73.82;100435.03;3144841;28;20060;-65
2022/10/11 02:06:38;;;;;;;17.38;8.15;;;;;;;13.60;73.78;100438.66;3145111;28;20043;-65
2022/10/11 02:08:19;;;;;;;14.63;8.18;;;;;;;13.58;73.96;100435.28;3144878;28;20173;-65
2022/10/11 02:09:57;;;;;;;16.38;8.57;;;;;;;13.57;74.15;100438.78;3144891;28;20049;-66
2022/10/11 02:11:32;;;;;;;17.17;8.50;;;;;;;13.57;74.16;100437.94;3144550;28;20466;-65
2022/10/11 02:13:11;;;;;;;16.23;8.07;;;;;;;13.57;73.84;100441.41;3144714;28;20070;-65
2022/10/11 02:14:46;;;;;;;16.40;7.47;;;;;;;13.57;73.96;100443.19;3145291;28;20051;-65
2022/10/11 02:16:22;;;;;;;15.15;8.65;;;;;;;13.58;73.95;100442.28;3147312;28;20150;-65
2022/10/11 02:17:57;;;;;;;13.30;7.95;;;;;;;13.60;73.88;100441.25;3141174;28;20060;-65
2022/10/11 02:19:37;;;;;;;13.52;8.15;;;;;;;13.62;73.95;100444.66;3146901;28;20244;-65
2022/10/11 02:21:14;;;;;;;20.88;8.52;;;;;;;13.62;73.97;100444.66;3147150;28;20131;-65
2022/10/11 02:22:49;;;;;;;18.92;8.38;;;;;;;13.62;74.26;100434.19;3146857;28;20528;-65
2022/10/11 02:24:26;;;;;;;14.27;7.72;;;;;;;13.63;74.16;100448.97;3147342;28;20101;-65
2022/10/11 02:25:58;;;;;;;19.35;8.07;;;;;;;13.62;74.12;100449.06;3146850;28;20048;-65
2022/10/11 02:27:33;;;;;;;19.75;7.68;;;;;;;13.62;74.18;100444.66;3146804;28;20052;-64
2022/10/11 02:29:09;;;;;;;14.63;7.88;;;;;;;13.61;74.36;100442.13;3147190;28;20049;-65
2022/10/11 02:30:44;;;;;;;19.20;9.00;;;;;;;13.62;74.38;100451.66;3147025;28;20071;-65
2022/10/11 02:32:19;;;;;;;13.70;7.80;;;;;;;13.64;74.00;100444.59;3147047;28;20131;-65
2022/10/11 02:33:56;;;;;;;14.52;8.02;;;;;;;13.68;73.95;100446.16;3146744;28;20045;-65
2022/10/11 02:35:32;;;;;;;15.55;7.60;;;;;;;13.68;73.86;100443.53;3146875;28;20057;-65
2022/10/11 02:37:08;;;;;;;14.00;7.72;;;;;;;13.69;73.88;100439.13;3147044;28;20053;-65
2022/10/11 02:38:47;;;;;;;18.88;8.00;;;;;;;13.71;74.05;100443.38;3146871;28;20144;-65
2022/10/11 02:40:24;;;;;;;18.92;7.45;;;;;;;13.72;74.02;100439.00;3147118;28;20044;-65
2022/10/11 02:42:01;;;;;;;14.70;7.55;;;;;;;13.67;73.86;100430.53;3146607;28;20410;-65
2022/10/11 02:43:36;;;;;;;17.83;7.85;;;;;;;13.74;73.92;100438.00;3146941;28;20060;-65
2022/10/11 02:45:13;;;;;;;13.88;7.40;;;;;;;13.76;73.59;100444.03;3146936;28;20052;-65
2022/10/11 02:46:46;;;;;;;13.45;8.25;;;;;;;13.79;73.92;100443.88;3146649;28;20110;-66
2022/10/11 02:48:17;;;;;;;;;;;;;;;13.80;73.64;100437.69;3147317;28;20048;-65
2022/10/11 02:49:49;;;;;;;15.68;7.57;;;;;;;13.83;73.17;100441.94;3146594;28;20298;-65
2022/10/11 02:51:25;;;;;;;14.68;7.78;;;;;;;13.83;73.49;100440.16;3146640;28;20090;-65
2022/10/11 02:52:57;;;;;;;13.25;8.13;;;;;;;13.82;73.31;100429.78;3146518;28;20433;-65
2022/10/11 02:54:29;;;;;;;22.60;8.27;;;;;;;13.83;73.29;100441.94;3146935;28;20102;-65
2022/10/11 02:56:00;;;;;;;15.70;8.50;;;;;;;13.82;73.51;100435.88;3146729;28;20582;-65
2022/10/11 02:57:33;;;;;;;19.67;9.18;;;;;;;13.80;73.71;100440.31;3146447;28;20056;-65
2022/10/11 02:59:03;;;;;;;22.52;8.93;;;;;;;13.79;73.71;100432.56;3146741;28;20052;-65
2022/10/11 03:00:35;;;;;;;19.42;8.25;;;;;;;13.79;73.46;100432.56;3146666;28;20209;-65
2022/10/11 03:02:07;;;;;;;17.58;8.98;;;;;;;13.76;73.58;100430.94;3146674;28;20048;-65
2022/10/11 03:03:38;;;;;;;22.25;10.15;;;;;;;13.76;73.66;100432.72;3146551;28;20114;-65
2022/10/11 03:05:10;;;;;;;18.13;8.85;;;;;;;13.76;73.27;100430.09;3146463;28;20132;-65
2022/10/11 03:06:43;;;;;;;20.35;8.57;;;;;;;13.77;73.38;100437.84;3146510;28;20484;-65
2022/10/11 03:08:16;;;;;;;24.73;9.05;;;;;;;13.79;73.23;100436.00;3146798;28;20441;-65
2022/10/11 03:09:48;;;;;;;14.95;7.80;;;;;;;13.80;73.38;100432.47;3146312;28;20060;-65
2022/10/11 03:11:19;;;;;;;15.20;8.27;;;;;;;13.83;73.38;100434.09;3146423;28;20071;-65
2022/10/11 03:12:51;;;;;;;17.60;8.02;;;;;;;13.86;73.21;100439.19;3142932;28;20048;-65
2022/10/11 03:14:24;;;;;;;16.02;7.68;;;;;;;13.88;73.01;100434.72;3138177;28;20060;-63
2022/10/11 03:15:56;;;;;;;14.00;7.90;;;;;;;13.90;72.99;100430.25;3141360;28;20068;-64
2022/10/11 03:17:28;;;;;;;15.68;7.72;;;;;;;13.91;72.84;100431.13;3141047;28;20121;-64
2022/10/11 03:19:00;;;;;;;14.20;7.57;;;;;;;13.92;72.72;100436.25;3141334;28;20063;-65
2022/10/11 03:20:32;;;;;;;20.88;8.07;;;;;;;13.93;72.72;100431.88;3141332;28;20083;-64
2022/10/11 03:22:04;;;;;;;16.17;7.53;;;;;;;13.93;73.00;100434.47;3140920;28;20048;-65
2022/10/11 03:23:36;;;;;;;18.35;7.43;;;;;;;13.96;72.88;100437.81;3140977;28;20059;-65
2022/10/11 03:25:08;;;;;;;22.95;7.93;;;;;;;13.99;72.60;100435.06;3141264;28;20048;-65
2022/10/11 03:26:40;;;;;;;14.35;7.65;;;;;;;14.00;72.54;100431.50;3140078;28;20116;-65
2022/10/11 03:28:11;;;;;;;12.77;7.43;;;;;;;14.02;72.58;100421.81;3141237;28;20650;-65
2022/10/11 03:29:43;;;;;;;16.33;7.75;;;;;;;14.04;72.21;100429.56;3140834;28;20060;-65
2022/10/11 03:31:14;;;;;;;16.20;7.60;;;;;;;14.05;72.25;100423.41;3141070;28;20082;-65
2022/10/11 03:32:46;;;;;;;20.10;7.82;;;;;;;14.05;72.14;100431.25;3140813;28;21425;-65
2022/10/11 03:34:18;;;;;;;14.10;7.38;;;;;;;14.03;72.12;100426.09;3140693;28;20056;-64
2022/10/11 03:35:50;;;;;;;15.60;7.47;;;;;;;14.03;72.04;100433.97;3140642;28;20074;-66
2022/10/11 03:37:24;;;;;;;15.10;7.47;;;;;;;14.05;72.09;100426.88;3141048;28;20057;-66
2022/10/11 03:38:55;;;;;;;18.67;8.07;;;;;;;14.08;72.01;100428.50;3140569;28;20070;-65
2022/10/11 03:40:27;;;;;;;14.32;6.88;;;;;;;14.09;71.75;100424.97;3141134;28;20052;-65
2022/10/11 03:41:59;;;;;;;16.00;8.07;;;;;;;14.06;72.06;100422.50;3140802;28;20163;-66
2022/10/11 03:43:31;;;;;;;15.57;7.78;;;;;;;14.05;71.86;100421.66;3140673;28;20052;-65
2022/10/11 03:45:06;;;;;;;15.32;8.48;;;;;;;14.02;72.07;100416.56;3140796;28;20052;-66
2022/10/11 03:46:38;;;;;;;14.10;7.10;;;;;;;14.06;71.85;100425.13;3140347;28;20048;-65
2022/10/11 03:48:11;;;;;;;18.83;7.75;;;;;;;14.06;71.84;100418.09;3140914;28;20114;-65
2022/10/11 03:49:43;;;;;;;17.10;7.40;;;;;;;14.08;71.93;100415.41;3140617;28;20064;-66
2022/10/11 03:51:15;;;;;;;14.88;8.48;;;;;;;14.04;71.78;100414.69;3140426;28;20098;-65
2022/10/11 03:52:48;;;;;;;17.15;7.30;;;;;;;14.14;71.75;100427.34;3140578;28;20405;-66
2022/10/11 03:54:20;;;;;;;;;;;;;;;14.10;71.79;100417.00;3141308;28;20308;-65
2022/10/11 03:55:53;;;;;;;13.45;7.53;;;;;;;14.09;71.58;100417.09;3140488;28;19949;-65
2022/10/11 03:57:25;;;;;;;20.35;8.65;;;;;;;14.07;71.86;100418.94;3140604;28;20083;-65
2022/10/11 03:58:57;;;;;;;21.30;8.55;;;;;;;14.04;71.76;100414.69;3140518;28;20060;-66
2022/10/11 04:00:29;;;;;;;18.63;7.93;;;;;;;14.05;71.75;100418.16;3140539;28;20048;-66
2022/10/11 04:02:00;;;;;;;23.80;7.80;;;;;;;14.05;71.83;100412.91;3138062;28;20048;-65
2022/10/11 04:03:32;;;;;;;16.10;8.35;;;;;;;14.06;71.90;100412.88;3136097;28;20084;-65
2022/10/11 04:05:05;;;;;;;16.35;7.07;;;;;;;14.05;71.90;100410.31;3140510;28;20055;-65
2022/10/11 04:06:37;;;;;;;14.73;7.30;;;;;;;14.02;72.02;100413.06;3139965;28;20545;-68
2022/10/11 04:08:10;;;;;;;15.32;7.55;;;;;;;13.99;72.26;100408.88;3140081;28;20109;-68
2022/10/11 04:09:42;;;;;;;16.15;7.18;;;;;;;13.99;72.32;100411.47;3139682;28;20067;-69
2022/10/11 04:11:14;;;;;;;16.70;8.07;;;;;;;13.97;72.45;100412.47;3140075;28;20474;-68
2022/10/11 04:12:46;;;;;;;16.25;8.52;;;;;;;13.95;72.51;100404.69;3140411;28;20090;-67
2022/10/11 04:14:18;;;;;;;47.15;20.75;;;;;;;13.99;72.36;100410.59;3140072;28;20471;-69
2022/10/11 04:15:50;;;;;;;19.05;8.85;;;;;;;14.02;72.57;100407.84;3139879;28;20053;-65
2022/10/11 04:17:22;;;;;;;20.23;9.45;;;;;;;14.06;72.19;100410.25;3140084;28;20056;-67
2022/10/11 04:18:54;;;;;;;22.33;7.68;;;;;;;14.09;72.07;100414.47;3140386;28;20091;-66
2022/10/11 04:20:26;;;;;;;15.73;7.38;;;;;;;14.11;72.38;100410.88;3140350;28;20060;-66
2022/10/11 04:21:57;;;;;;;16.58;7.40;;;;;;;14.12;72.19;100411.72;3140232;28;20048;-65
2022/10/11 04:23:31;;;;;;;15.93;7.68;;;;;;;14.08;72.09;100408.41;3140461;28;20636;-63
2022/10/11 04:25:04;;;;;;;15.35;7.78;;;;;;;14.10;71.88;100410.94;3140279;28;20048;-63
2022/10/11 04:26:36;;;;;;;20.23;9.15;;;;;;;14.09;71.85;100404.84;3140348;28;20052;-64
2022/10/11 04:28:08;;;;;;;21.25;8.15;;;;;;;14.11;71.82;100402.16;3140126;28;20461;-64
2022/10/11 04:29:40;;;;;;;20.10;7.63;;;;;;;14.11;71.92;100404.78;3139658;28;20594;-65
2022/10/11 04:31:12;;;;;;;17.73;7.93;;;;;;;14.11;71.94;100400.38;3140158;28;20113;-66
2022/10/11 04:32:43;;;;;;;23.55;8.18;;;;;;;14.11;71.98;100407.41;3140070;28;20056;-65
2022/10/11 04:34:16;;;;;;;21.02;7.80;;;;;;;14.12;71.75;100409.09;3139840;28;20055;-66
2022/10/11 04:35:48;;;;;;;23.60;7.93;;;;;;;14.11;71.98;100410.03;3140203;28;20060;-64
2022/10/11 04:37:20;;;;;;;20.23;8.95;;;;;;;14.09;72.00;100409.25;3140054;28;20552;-65
2022/10/11 04:38:55;;;;;;;21.83;8.82;;;;;;;14.08;72.24;100418.03;3139625;28;20060;-64
2022/10/11 04:40:26;;;;;;;19.60;7.78;;;;;;;14.07;72.14;100413.69;3139839;28;20048;-64
2022/10/11 04:41:58;;;;;;;21.83;8.98;;;;;;;14.06;72.18;100418.09;3140248;28;20052;-63
2022/10/11 04:43:30;;;;;;;23.60;8.77;;;;;;;14.08;72.21;100412.81;3139982;28;20336;-63
2022/10/11 04:45:02;;;;;;;18.67;8.80;;;;;;;14.09;71.98;100415.31;3139725;28;20102;-66
2022/10/11 04:46:34;;;;;;;15.52;8.60;;;;;;;14.12;71.83;100411.72;3140087;28;20056;-68
2022/10/11 04:48:06;;;;;;;18.85;7.85;;;;;;;14.13;72.01;100416.00;3140238;28;20105;-67
2022/10/11 04:49:38;;;;;;;23.40;8.93;;;;;;;14.13;71.49;100416.00;3139708;28;20049;-65
2022/10/11 04:51:10;;;;;;;24.90;7.95;;;;;;;14.15;71.54;100421.19;3140013;28;20095;-66
2022/10/11 04:52:43;;;;;;;15.65;7.38;;;;;;;14.16;71.52;100420.25;3139861;28;20641;-62
2022/10/11 04:54:16;;;;;;;21.55;8.60;;;;;;;14.17;71.63;100421.94;3139814;28;20505;-64
2022/10/11 04:55:57;;;;;;;25.13;7.88;;;;;;;14.18;71.42;100414.03;3139463;28;20436;-64
2022/10/11 04:57:29;;;;;;;19.27;7.13;;;;;;;14.19;71.21;100423.56;3139630;28;20083;-65
2022/10/11 04:59:00;;;;;;;21.77;8.45;;;;;;;14.19;70.88;100418.31;3139952;28;20048;-67
2022/10/11 05:00:32;;;;;;;27.25;8.65;;;;;;;14.18;70.87;100415.78;3139766;28;20120;-64
2022/10/11 05:02:04;;;;;;;22.15;8.52;;;;;;;14.14;70.38;100417.72;3139820;28;20491;-64
2022/10/11 05:03:36;;;;;;;22.08;7.90;;;;;;;14.11;70.54;100416.09;3139462;28;20053;-67
2022/10/11 05:05:09;;;;;;;18.85;8.68;;;;;;;14.10;70.59;100421.41;3139945;28;20049;-65
2022/10/11 05:06:41;;;;;;;22.70;8.00;;;;;;;14.07;70.93;100424.19;3139278;28;20505;-66
2022/10/11 05:08:13;;;;;;;24.08;8.02;;;;;;;14.06;70.86;100425.13;3140093;28;20118;-65
2022/10/11 05:09:46;;;;;;;24.05;8.63;;;;;;;14.06;71.04;100425.13;3139765;28;20453;-65
2022/10/11 05:11:18;;;;;;;20.95;8.88;;;;;;;14.05;71.62;100428.63;3139882;28;20508;-71
2022/10/11 05:12:50;;;;;;;26.27;9.05;;;;;;;14.05;71.56;100426.00;3139606;28;20131;-67
2022/10/11 05:14:21;;;;;;;26.92;9.32;;;;;;;14.04;71.82;100424.34;3139925;28;20056;-66
2022/10/11 05:15:53;;;;;;;22.52;9.48;;;;;;;14.03;71.83;100423.50;3139465;28;20083;-64
2022/10/11 05:17:25;;;;;;;21.55;8.93;;;;;;;14.04;71.47;100419.09;3136431;28;20595;-70
2022/10/11 05:18:57;;;;;;;25.27;9.02;;;;;;;14.02;71.69;100415.69;3132014;28;20071;-69
2022/10/11 05:20:28;;;;;;;23.63;8.68;;;;;;;14.00;71.56;100418.41;3135180;28;20125;-67
2022/10/11 05:22:00;;;;;;;17.45;8.35;;;;;;;13.99;71.65;100415.84;3134743;28;20059;-66
2022/10/11 05:23:34;;;;;;;22.65;9.40;;;;;;;13.98;71.64;100408.94;3134909;28;20057;-66
2022/10/11 05:25:08;;;;;;;19.33;8.18;;;;;;;13.97;71.53;100412.47;3135609;28;20860;-62
2022/10/11 05:26:40;;;;;;;27.20;11.32;;;;;;;13.96;71.77;100411.63;3135137;28;20139;-64
2022/10/11 05:28:12;;;;;;;34.08;11.65;;;;;;;13.96;71.84;100405.53;3134940;28;20759;-64
2022/10/11 05:29:44;;;;;;;47.83;27.92;;;;;;;13.97;71.94;100409.88;3135200;28;20547;-65
2022/10/11 05:31:17;;;;;;;30.80;10.15;;;;;;;13.96;71.98;100406.41;3135358;28;20131;-67
2022/10/11 05:32:49;;;;;;;23.20;9.45;;;;;;;13.95;71.85;100403.84;3135897;28;20107;-71
2022/10/11 05:34:21;;;;;;;18.17;7.78;;;;;;;13.94;71.82;100405.63;3136172;28;20060;-69
2022/10/11 05:35:53;;;;;;;19.98;8.20;;;;;;;13.94;71.99;100407.41;3134935;28;20044;-66
2022/10/11 05:37:25;;;;;;;18.85;8.65;;;;;;;13.91;72.11;100412.78;3135263;28;20048;-66
2022/10/11 05:38:56;;;;;;;18.60;8.68;;;;;;;13.88;72.15;100414.63;3134688;28;20782;-67
2022/10/11 05:40:29;;;;;;;13.95;7.88;;;;;;;13.86;72.16;100413.00;3134567;28;20139;-67
2022/10/11 05:42:01;;;;;;;19.10;7.30;;;;;;;13.84;72.43;100422.69;3133999;28;20044;-65
2022/10/11 05:43:33;;;;;;;14.10;7.57;;;;;;;13.85;72.71;100417.38;3134260;28;20053;-65
2022/10/11 05:45:06;;;;;;;15.30;7.50;;;;;;;13.83;72.60;100415.75;3134722;28;20079;-65
2022/10/11 05:46:39;;;;;;;19.58;8.32;;;;;;;13.87;72.57;100423.41;3135418;28;20048;-67
2022/10/11 05:48:12;;;;;;;19.17;7.50;;;;;;;13.88;72.73;100427.72;3135393;28;20083;-67
2022/10/11 05:49:44;;;;;;;14.02;7.00;;;;;;;13.89;72.84;100428.56;3135716;28;20598;-68
2022/10/11 05:51:16;;;;;;;20.85;8.55;;;;;;;13.86;73.18;100431.31;3137615;28;20052;-68
2022/10/11 05:52:46;;;;;;;19.52;8.02;;;;;;;13.87;73.17;100440.84;3137099;28;20060;-66
2022/10/11 05:54:18;;;;;;;17.15;7.93;;;;;;;13.87;73.21;100435.63;3137567;28;20600;-66
2022/10/11 05:55:51;;;;;;;23.02;8.02;;;;;;;13.88;72.70;100435.56;3136667;28;20052;-63
2022/10/11 05:57:23;;;;;;;19.08;8.55;;;;;;;13.91;73.10;100438.97;3136514;28;20079;-65
2022/10/11 05:58:55;;;;;;;18.35;7.90;;;;;;;13.94;72.86;100439.66;3136656;28;20538;-66
2022/10/11 06:00:27;;;;;;;15.52;8.25;;;;;;;13.97;73.00;100443.91;3133079;28;20059;-64
2022/10/11 06:01:59;;;;;;;19.95;8.75;;;;;;;14.00;73.16;100433.28;3137173;28;20059;-63
2022/10/11 06:03:31;;;;;;;21.17;9.02;;;;;;;14.04;73.17;100440.03;3136271;28;20128;-63
2022/10/11 06:05:03;;;;;;;24.48;8.55;;;;;;;14.07;73.05;100443.34;3135983;28;20057;-65
2022/10/11 06:06:35;;;;;;;17.20;8.52;;;;;;;14.09;73.07;100438.06;3135361;28;20583;-64
2022/10/11 06:08:09;;;;;;;18.15;7.80;;;;;;;14.13;72.82;100433.50;3135881;28;20052;-64
2022/10/11 06:09:41;;;;;;;15.10;8.35;;;;;;;14.16;72.81;100438.59;3135609;28;20158;-64
2022/10/11 06:11:17;;;;;;;17.98;7.55;;;;;;;14.20;72.93;100441.00;3135770;28;20617;-64
2022/10/11 06:12:49;;;;;;;20.27;8.02;;;;;;;14.23;72.93;100440.84;3136057;28;20345;-63
2022/10/11 06:14:21;;;;;;;17.20;7.47;;;;;;;14.25;73.07;100449.44;3136135;28;20062;-63
2022/10/11 06:15:53;;;;;;;10.05;6.70;;;;;;;14.27;72.87;100444.16;3135413;28;20048;-64
2022/10/11 06:17:25;;;;;;;19.27;7.40;;;;;;;14.29;72.80;100445.78;3135873;28;20135;-63
2022/10/11 06:18:57;;;;;;;17.48;6.55;;;;;;;14.28;72.82;100451.06;3136757;28;20057;-63
2022/10/11 06:20:30;;;;;;;20.52;6.90;;;;;;;14.25;73.24;100446.81;3137447;28;20056;-64
2022/10/11 06:22:02;;;;;;;11.30;6.28;;;;;;;14.24;73.24;100445.16;3136264;28;20231;-64
2022/10/11 06:23:34;;;;;;;16.60;6.95;;;;;;;14.23;73.29;100451.31;3137145;28;20053;-64
2022/10/11 06:25:07;;;;;;;14.75;5.75;;;;;;;14.23;73.35;100445.25;3135899;28;20266;-63
2022/10/11 06:26:41;;;;;;;17.20;6.68;;;;;;;14.21;73.23;100442.69;3135902;28;20521;-63
2022/10/11 06:28:13;;;;;;;13.73;6.78;;;;;;;14.21;73.67;100447.06;3136715;28;20163;-63
2022/10/11 06:29:45;;;;;;;11.23;6.05;;;;;;;14.20;73.34;100442.78;3135602;28;20056;-64
2022/10/11 06:31:17;;;;;;;11.02;6.45;;;;;;;14.19;73.68;100443.69;3135260;28;20061;-66
2022/10/11 06:32:49;;;;;;;20.80;6.65;;;;;;;14.17;73.82;100443.78;3136582;28;20052;-65
2022/10/11 06:34:42;;;;;;;17.00;6.80;;;;;;;14.20;73.68;100445.41;3137390;28;20052;-65
2022/10/11 06:36:15;;;;;;;60.15;27.60;;;;;;;14.24;73.45;100450.38;3114103;28;20135;-63
2022/10/11 06:37:47;;;;;;;42.55;22.40;;;;;;;14.30;73.26;100452.69;3139970;28;20075;-62
2022/10/11 06:39:19;;;;;;;15.13;7.18;;;;;;;14.30;73.55;100455.31;3140558;28;20052;-64
2022/10/11 06:40:51;;;;;;;12.85;6.30;;;;;;;14.30;73.51;100455.31;3140433;28;20139;-65
2022/10/11 06:42:25;;;;;;;27.75;8.20;;;;;;;14.30;73.47;100457.09;3140014;28;20535;-67
2022/10/11 06:43:57;;;;;;;11.88;6.05;;;;;;;14.29;73.38;100445.78;3140824;28;20056;-65
2022/10/11 06:45:29;;;;;;;15.23;6.05;;;;;;;14.31;73.36;100457.00;3140818;28;20642;-63
2022/10/11 06:47:01;;;;;;;18.02;6.28;;;;;;;14.32;73.75;100463.13;3140425;28;20056;-63
2022/10/11 06:48:33;;;;;;;13.98;7.13;;;;;;;14.34;73.44;100464.72;3140371;28;20691;-62
2022/10/11 06:50:05;;;;;;;17.45;6.38;;;;;;;14.34;73.36;100456.00;3140781;28;20056;-65
2022/10/11 06:51:37;;;;;;;14.98;6.20;;;;;;;14.37;73.61;100460.25;3140098;28;20204;-64
2022/10/11 06:53:09;;;;;;;12.02;5.95;;;;;;;14.37;73.47;100462.88;3140102;28;20055;-64
2022/10/11 06:54:41;;;;;;;16.70;5.90;;;;;;;14.38;73.49;100467.19;3140899;28;20117;-65
2022/10/11 06:56:13;;;;;;;11.07;6.40;;;;;;;14.38;73.25;100460.19;3140824;28;20064;-65
2022/10/11 06:57:47;;;;;;;23.02;6.43;;;;;;;14.40;73.29;100463.56;3140258;28;20596;-65
2022/10/11 06:59:19;;;;;;;15.23;6.32;;;;;;;14.40;73.71;100462.72;3139980;28;20110;-64
2022/10/11 07:00:50;;;;;;;18.88;6.80;;;;;;;14.45;73.29;100463.34;3140448;28;20056;-64
2022/10/11 07:02:22;;;;;;;16.60;7.90;;;;;;;14.46;73.55;100457.16;3139377;28;20052;-65
2022/10/11 07:03:57;;;;;;;18.27;6.75;;;;;;;14.51;73.65;100460.41;3139705;28;20590;-65
2022/10/11 07:05:30;;;;;;;14.23;6.78;;;;;;;14.53;73.38;100461.22;3140874;28;20058;-64
2022/10/11 07:07:02;;;;;;;17.80;6.70;;;;;;;14.53;73.33;100456.81;3140317;28;20387;-65
2022/10/11 07:08:35;;;;;;;19.20;7.80;;;;;;;14.54;73.25;100455.03;3139912;28;20064;-65
2022/10/11 07:10:08;;;;;;;11.60;6.75;;;;;;;14.55;73.30;100456.72;3140796;28;20067;-64
2022/10/11 07:11:40;;;;;;;13.75;6.85;;;;;;;14.56;73.47;100448.78;3140560;28;20053;-65